sensor_id;sensor_type;location;lat;lon;timestamp;P1;durP1;ratioP1;P2;durP2;ratioP2
41829;SDS011;38614;43.472;23.936;2023-12-20T00:00:57;22.67;;;9.80;;
41829;SDS011;38614;43.472;23.936;2023-12-20T00:03:46;19.58;;;9.68;;
41829;SDS011;38614;43.472;23.936;2023-12-20T00:06:33;24.27;;;8.48;;
41829;SDS011;38614;43.472;23.936;2023-12-20T00:09:21;24.73;;;8.88;;
41829;SDS011;38614;43.472;23.936;2023-12-20T00:12:09;18.77;;;8.57;;
41829;SDS011;38614;43.472;23.936;2023-12-20T00:14:57;21.73;;;8.38;;
41829;SDS011;38614;43.472;23.936;2023-12-20T00:17:45;16.77;;;8.63;;
41829;SDS011;38614;43.472;23.936;2023-12-20T00:20:33;22.15;;;9.25;;
41829;SDS011;38614;43.472;23.936;2023-12-20T00:23:20;15.95;;;8.38;;
41829;SDS011;38614;43.472;23.936;2023-12-20T00:26:11;25.10;;;9.73;;
41829;SDS011;38614;43.472;23.936;2023-12-20T00:28:58;33.13;;;15.68;;
41829;SDS011;38614;43.472;23.936;2023-12-20T00:31:46;42.00;;;16.00;;
41829;SDS011;38614;43.472;23.936;2023-12-20T00:34:34;29.52;;;13.80;;
41829;SDS011;38614;43.472;23.936;2023-12-20T00:37:22;28.40;;;15.00;;
41829;SDS011;38614;43.472;23.936;2023-12-20T00:40:10;28.10;;;14.13;;
41829;SDS011;38614;43.472;23.936;2023-12-20T00:42:58;27.67;;;14.80;;
41829;SDS011;38614;43.472;23.936;2023-12-20T00:45:46;28.13;;;14.25;;
41829;SDS011;38614;43.472;23.936;2023-12-20T00:48:34;31.27;;;13.10;;
41829;SDS011;38614;43.472;23.936;2023-12-20T00:51:22;33.05;;;14.23;;
41829;SDS011;38614;43.472;23.936;2023-12-20T00:54:09;27.63;;;14.70;;
41829;SDS011;38614;43.472;23.936;2023-12-20T00:56:57;37.20;;;16.50;;
41829;SDS011;38614;43.472;23.936;2023-12-20T00:59:45;40.28;;;18.65;;
41829;SDS011;38614;43.472;23.936;2023-12-20T01:02:33;40.65;;;17.98;;
41829;SDS011;38614;43.472;23.936;2023-12-20T01:05:21;42.97;;;21.63;;
41829;SDS011;38614;43.472;23.936;2023-12-20T01:08:11;53.97;;;24.98;;
41829;SDS011;38614;43.472;23.936;2023-12-20T01:11:00;46.58;;;21.20;;
41829;SDS011;38614;43.472;23.936;2023-12-20T01:13:47;56.72;;;25.70;;
41829;SDS011;38614;43.472;23.936;2023-12-20T01:16:35;51.28;;;25.50;;
41829;SDS011;38614;43.472;23.936;2023-12-20T01:19:24;51.03;;;26.02;;
41829;SDS011;38614;43.472;23.936;2023-12-20T01:22:12;45.67;;;23.38;;
41829;SDS011;38614;43.472;23.936;2023-12-20T01:25:00;42.95;;;23.05;;
41829;SDS011;38614;43.472;23.936;2023-12-20T01:27:47;56.45;;;25.58;;
41829;SDS011;38614;43.472;23.936;2023-12-20T01:30:35;40.20;;;20.05;;
41829;SDS011;38614;43.472;23.936;2023-12-20T01:33:23;48.63;;;22.05;;
41829;SDS011;38614;43.472;23.936;2023-12-20T01:36:11;43.53;;;21.75;;
41829;SDS011;38614;43.472;23.936;2023-12-20T01:38:59;45.15;;;21.92;;
41829;SDS011;38614;43.472;23.936;2023-12-20T01:41:49;46.70;;;21.58;;
41829;SDS011;38614;43.472;23.936;2023-12-20T01:44:36;48.88;;;22.75;;
41829;SDS011;38614;43.472;23.936;2023-12-20T01:47:24;43.60;;;20.58;;
41829;SDS011;38614;43.472;23.936;2023-12-20T01:50:14;41.50;;;21.60;;
41829;SDS011;38614;43.472;23.936;2023-12-20T01:53:02;32.92;;;16.52;;
41829;SDS011;38614;43.472;23.936;2023-12-20T01:55:51;45.28;;;22.02;;
41829;SDS011;38614;43.472;23.936;2023-12-20T01:58:43;49.35;;;23.10;;
41829;SDS011;38614;43.472;23.936;2023-12-20T02:01:35;42.50;;;20.38;;
41829;SDS011;38614;43.472;23.936;2023-12-20T02:04:24;51.83;;;21.73;;
41829;SDS011;38614;43.472;23.936;2023-12-20T02:07:12;47.10;;;22.77;;
41829;SDS011;38614;43.472;23.936;2023-12-20T02:10:01;62.00;;;27.70;;
41829;SDS011;38614;43.472;23.936;2023-12-20T02:12:49;47.72;;;25.30;;
41829;SDS011;38614;43.472;23.936;2023-12-20T02:15:37;52.92;;;24.50;;
41829;SDS011;38614;43.472;23.936;2023-12-20T02:18:25;48.97;;;25.60;;
41829;SDS011;38614;43.472;23.936;2023-12-20T02:21:13;52.55;;;25.95;;
41829;SDS011;38614;43.472;23.936;2023-12-20T02:24:02;44.70;;;24.02;;
41829;SDS011;38614;43.472;23.936;2023-12-20T02:26:52;57.35;;;29.50;;
41829;SDS011;38614;43.472;23.936;2023-12-20T02:29:40;53.55;;;31.52;;
41829;SDS011;38614;43.472;23.936;2023-12-20T02:32:28;54.38;;;29.77;;
41829;SDS011;38614;43.472;23.936;2023-12-20T02:35:16;45.92;;;27.00;;
41829;SDS011;38614;43.472;23.936;2023-12-20T02:38:04;49.05;;;27.48;;
41829;SDS011;38614;43.472;23.936;2023-12-20T02:40:52;42.72;;;24.73;;
41829;SDS011;38614;43.472;23.936;2023-12-20T02:43:40;42.30;;;23.75;;
41829;SDS011;38614;43.472;23.936;2023-12-20T02:46:28;47.20;;;23.90;;
41829;SDS011;38614;43.472;23.936;2023-12-20T02:49:16;46.22;;;21.90;;
41829;SDS011;38614;43.472;23.936;2023-12-20T02:52:04;40.50;;;22.60;;
41829;SDS011;38614;43.472;23.936;2023-12-20T02:54:52;31.58;;;18.38;;
41829;SDS011;38614;43.472;23.936;2023-12-20T02:57:39;28.73;;;14.18;;
41829;SDS011;38614;43.472;23.936;2023-12-20T03:00:31;30.17;;;14.50;;
41829;SDS011;38614;43.472;23.936;2023-12-20T03:03:18;19.35;;;12.55;;
41829;SDS011;38614;43.472;23.936;2023-12-20T03:06:06;18.38;;;11.45;;
41829;SDS011;38614;43.472;23.936;2023-12-20T03:08:54;24.83;;;14.10;;
41829;SDS011;38614;43.472;23.936;2023-12-20T03:11:41;18.45;;;11.35;;
41829;SDS011;38614;43.472;23.936;2023-12-20T03:14:29;19.75;;;10.88;;
41829;SDS011;38614;43.472;23.936;2023-12-20T03:17:17;21.58;;;10.70;;
41829;SDS011;38614;43.472;23.936;2023-12-20T03:20:05;23.50;;;12.20;;
41829;SDS011;38614;43.472;23.936;2023-12-20T03:23:04;25.67;;;11.40;;
41829;SDS011;38614;43.472;23.936;2023-12-20T03:25:54;23.83;;;11.65;;
41829;SDS011;38614;43.472;23.936;2023-12-20T03:28:43;23.77;;;12.40;;
41829;SDS011;38614;43.472;23.936;2023-12-20T03:31:31;29.83;;;11.80;;
41829;SDS011;38614;43.472;23.936;2023-12-20T03:34:18;23.40;;;11.00;;
41829;SDS011;38614;43.472;23.936;2023-12-20T03:37:06;21.13;;;9.95;;
41829;SDS011;38614;43.472;23.936;2023-12-20T03:39:54;17.00;;;8.50;;
41829;SDS011;38614;43.472;23.936;2023-12-20T03:42:43;22.93;;;10.40;;
41829;SDS011;38614;43.472;23.936;2023-12-20T03:45:31;24.30;;;11.50;;
41829;SDS011;38614;43.472;23.936;2023-12-20T03:48:18;23.20;;;10.40;;
41829;SDS011;38614;43.472;23.936;2023-12-20T03:51:06;23.15;;;9.90;;
41829;SDS011;38614;43.472;23.936;2023-12-20T03:53:54;17.50;;;8.17;;
41829;SDS011;38614;43.472;23.936;2023-12-20T03:56:42;16.27;;;8.38;;
41829;SDS011;38614;43.472;23.936;2023-12-20T03:59:30;27.65;;;9.55;;
41829;SDS011;38614;43.472;23.936;2023-12-20T04:02:18;18.25;;;9.73;;
41829;SDS011;38614;43.472;23.936;2023-12-20T04:05:06;23.58;;;9.80;;
41829;SDS011;38614;43.472;23.936;2023-12-20T04:07:54;24.95;;;10.07;;
41829;SDS011;38614;43.472;23.936;2023-12-20T04:10:42;24.25;;;9.43;;
41829;SDS011;38614;43.472;23.936;2023-12-20T04:13:29;19.58;;;10.68;;
41829;SDS011;38614;43.472;23.936;2023-12-20T04:16:19;24.23;;;11.68;;
41829;SDS011;38614;43.472;23.936;2023-12-20T04:19:07;28.75;;;11.02;;
41829;SDS011;38614;43.472;23.936;2023-12-20T04:21:55;21.90;;;10.75;;
41829;SDS011;38614;43.472;23.936;2023-12-20T04:24:43;18.25;;;9.98;;
41829;SDS011;38614;43.472;23.936;2023-12-20T04:27:31;21.90;;;10.63;;
41829;SDS011;38614;43.472;23.936;2023-12-20T04:30:19;25.42;;;11.27;;
41829;SDS011;38614;43.472;23.936;2023-12-20T04:33:06;22.02;;;10.70;;
41829;SDS011;38614;43.472;23.936;2023-12-20T04:35:54;26.73;;;13.30;;
41829;SDS011;38614;43.472;23.936;2023-12-20T04:38:42;30.10;;;14.95;;
41829;SDS011;38614;43.472;23.936;2023-12-20T04:41:30;31.92;;;13.98;;
41829;SDS011;38614;43.472;23.936;2023-12-20T04:44:18;33.72;;;13.98;;
41829;SDS011;38614;43.472;23.936;2023-12-20T04:47:05;27.20;;;15.73;;
41829;SDS011;38614;43.472;23.936;2023-12-20T04:49:53;42.47;;;19.70;;
41829;SDS011;38614;43.472;23.936;2023-12-20T04:52:41;33.57;;;17.67;;
41829;SDS011;38614;43.472;23.936;2023-12-20T04:55:29;32.33;;;16.47;;
41829;SDS011;38614;43.472;23.936;2023-12-20T04:58:17;33.27;;;16.90;;
41829;SDS011;38614;43.472;23.936;2023-12-20T05:01:08;47.73;;;19.23;;
41829;SDS011;38614;43.472;23.936;2023-12-20T05:03:56;55.67;;;24.75;;
41829;SDS011;38614;43.472;23.936;2023-12-20T05:06:44;41.87;;;23.07;;
41829;SDS011;38614;43.472;23.936;2023-12-20T05:09:32;45.17;;;21.60;;
41829;SDS011;38614;43.472;23.936;2023-12-20T05:12:20;20.37;;;10.80;;
41829;SDS011;38614;43.472;23.936;2023-12-20T05:15:11;15.63;;;7.30;;
41829;SDS011;38614;43.472;23.936;2023-12-20T05:18:02;23.03;;;10.27;;
41829;SDS011;38614;43.472;23.936;2023-12-20T05:20:52;14.53;;;8.57;;
41829;SDS011;38614;43.472;23.936;2023-12-20T05:23:46;16.47;;;8.27;;
41829;SDS011;38614;43.472;23.936;2023-12-20T05:26:34;13.67;;;7.63;;
41829;SDS011;38614;43.472;23.936;2023-12-20T05:29:25;15.88;;;7.80;;
41829;SDS011;38614;43.472;23.936;2023-12-20T05:32:13;19.53;;;9.73;;
41829;SDS011;38614;43.472;23.936;2023-12-20T05:35:00;27.03;;;12.30;;
41829;SDS011;38614;43.472;23.936;2023-12-20T05:37:51;45.77;;;12.73;;
41829;SDS011;38614;43.472;23.936;2023-12-20T05:40:39;27.57;;;12.17;;
41829;SDS011;38614;43.472;23.936;2023-12-20T05:43:27;29.63;;;12.60;;
41829;SDS011;38614;43.472;23.936;2023-12-20T05:46:14;27.05;;;9.57;;
41829;SDS011;38614;43.472;23.936;2023-12-20T05:49:03;40.17;;;12.40;;
41829;SDS011;38614;43.472;23.936;2023-12-20T05:51:52;31.67;;;11.37;;
41829;SDS011;38614;43.472;23.936;2023-12-20T05:54:42;26.30;;;10.47;;
41829;SDS011;38614;43.472;23.936;2023-12-20T05:57:35;27.27;;;10.90;;
41829;SDS011;38614;43.472;23.936;2023-12-20T06:00:23;29.97;;;11.80;;
41829;SDS011;38614;43.472;23.936;2023-12-20T06:03:15;38.13;;;12.37;;
41829;SDS011;38614;43.472;23.936;2023-12-20T06:06:05;38.60;;;15.27;;
41829;SDS011;38614;43.472;23.936;2023-12-20T06:09:02;25.77;;;12.73;;
41829;SDS011;38614;43.472;23.936;2023-12-20T06:11:51;24.10;;;12.93;;
41829;SDS011;38614;43.472;23.936;2023-12-20T06:14:39;26.73;;;15.98;;
41829;SDS011;38614;43.472;23.936;2023-12-20T06:17:26;26.90;;;15.00;;
41829;SDS011;38614;43.472;23.936;2023-12-20T06:20:17;34.65;;;14.75;;
41829;SDS011;38614;43.472;23.936;2023-12-20T06:23:05;32.20;;;16.43;;
41829;SDS011;38614;43.472;23.936;2023-12-20T06:25:53;33.88;;;18.42;;
41829;SDS011;38614;43.472;23.936;2023-12-20T06:28:41;36.90;;;16.23;;
41829;SDS011;38614;43.472;23.936;2023-12-20T06:31:28;32.17;;;18.25;;
41829;SDS011;38614;43.472;23.936;2023-12-20T06:34:16;34.65;;;14.85;;
41829;SDS011;38614;43.472;23.936;2023-12-20T06:37:04;37.03;;;15.73;;
41829;SDS011;38614;43.472;23.936;2023-12-20T06:39:52;48.20;;;17.03;;
41829;SDS011;38614;43.472;23.936;2023-12-20T06:42:40;40.42;;;17.98;;
41829;SDS011;38614;43.472;23.936;2023-12-20T06:45:40;60.30;;;22.10;;
41829;SDS011;38614;43.472;23.936;2023-12-20T06:48:28;64.32;;;27.10;;
41829;SDS011;38614;43.472;23.936;2023-12-20T06:51:16;62.87;;;27.47;;
41829;SDS011;38614;43.472;23.936;2023-12-20T06:54:04;43.72;;;21.20;;
41829;SDS011;38614;43.472;23.936;2023-12-20T06:56:52;48.13;;;22.00;;
41829;SDS011;38614;43.472;23.936;2023-12-20T06:59:43;69.30;;;25.80;;
41829;SDS011;38614;43.472;23.936;2023-12-20T07:02:31;54.33;;;23.02;;
41829;SDS011;38614;43.472;23.936;2023-12-20T07:05:19;63.30;;;24.33;;
41829;SDS011;38614;43.472;23.936;2023-12-20T07:08:07;69.67;;;29.47;;
41829;SDS011;38614;43.472;23.936;2023-12-20T07:10:56;69.03;;;29.40;;
41829;SDS011;38614;43.472;23.936;2023-12-20T07:13:43;66.95;;;30.95;;
41829;SDS011;38614;43.472;23.936;2023-12-20T07:16:32;76.20;;;34.10;;
41829;SDS011;38614;43.472;23.936;2023-12-20T07:19:20;64.25;;;31.17;;
41829;SDS011;38614;43.472;23.936;2023-12-20T07:22:08;59.97;;;31.13;;
41829;SDS011;38614;43.472;23.936;2023-12-20T07:24:55;77.13;;;33.13;;
41829;SDS011;38614;43.472;23.936;2023-12-20T07:27:44;57.40;;;32.50;;
41829;SDS011;38614;43.472;23.936;2023-12-20T07:30:32;68.63;;;35.10;;
41829;SDS011;38614;43.472;23.936;2023-12-20T07:33:19;109.35;;;40.42;;
41829;SDS011;38614;43.472;23.936;2023-12-20T07:36:07;82.95;;;38.42;;
41829;SDS011;38614;43.472;23.936;2023-12-20T07:38:59;88.15;;;37.25;;
41829;SDS011;38614;43.472;23.936;2023-12-20T07:41:46;68.40;;;33.60;;
41829;SDS011;38614;43.472;23.936;2023-12-20T07:44:36;66.18;;;29.80;;
41829;SDS011;38614;43.472;23.936;2023-12-20T07:47:24;73.20;;;30.05;;
41829;SDS011;38614;43.472;23.936;2023-12-20T07:50:13;54.47;;;28.60;;
41829;SDS011;38614;43.472;23.936;2023-12-20T07:53:04;57.88;;;26.95;;
41829;SDS011;38614;43.472;23.936;2023-12-20T07:55:51;52.75;;;22.80;;
41829;SDS011;38614;43.472;23.936;2023-12-20T07:58:39;40.63;;;21.35;;
41829;SDS011;38614;43.472;23.936;2023-12-20T08:01:39;41.85;;;17.90;;
41829;SDS011;38614;43.472;23.936;2023-12-20T08:04:27;38.97;;;18.25;;
41829;SDS011;38614;43.472;23.936;2023-12-20T08:07:15;52.33;;;21.75;;
41829;SDS011;38614;43.472;23.936;2023-12-20T08:10:05;50.45;;;19.02;;
41829;SDS011;38614;43.472;23.936;2023-12-20T08:12:53;36.97;;;16.40;;
41829;SDS011;38614;43.472;23.936;2023-12-20T08:15:41;34.38;;;13.90;;
41829;SDS011;38614;43.472;23.936;2023-12-20T08:18:29;20.42;;;9.30;;
41829;SDS011;38614;43.472;23.936;2023-12-20T08:21:20;23.95;;;10.82;;
41829;SDS011;38614;43.472;23.936;2023-12-20T08:26:57;23.25;;;6.85;;
41829;SDS011;38614;43.472;23.936;2023-12-20T08:29:45;28.13;;;11.63;;
41829;SDS011;38614;43.472;23.936;2023-12-20T08:32:35;21.27;;;11.27;;
41829;SDS011;38614;43.472;23.936;2023-12-20T08:35:23;10.60;;;5.80;;
41829;SDS011;38614;43.472;23.936;2023-12-20T08:38:15;10.77;;;5.28;;
41829;SDS011;38614;43.472;23.936;2023-12-20T08:41:05;11.57;;;5.80;;
41829;SDS011;38614;43.472;23.936;2023-12-20T08:43:53;12.18;;;4.68;;
41829;SDS011;38614;43.472;23.936;2023-12-20T08:46:43;18.85;;;8.05;;
41829;SDS011;38614;43.472;23.936;2023-12-20T08:49:31;25.65;;;13.27;;
41829;SDS011;38614;43.472;23.936;2023-12-20T08:52:18;29.13;;;13.70;;
41829;SDS011;38614;43.472;23.936;2023-12-20T08:55:06;23.60;;;10.82;;
41829;SDS011;38614;43.472;23.936;2023-12-20T08:57:55;32.08;;;15.05;;
41829;SDS011;38614;43.472;23.936;2023-12-20T09:00:45;36.88;;;15.15;;
41829;SDS011;38614;43.472;23.936;2023-12-20T09:03:33;20.10;;;8.20;;
41829;SDS011;38614;43.472;23.936;2023-12-20T09:06:24;23.00;;;7.93;;
41829;SDS011;38614;43.472;23.936;2023-12-20T09:09:12;32.42;;;12.45;;
41829;SDS011;38614;43.472;23.936;2023-12-20T09:12:09;39.55;;;18.40;;
41829;SDS011;38614;43.472;23.936;2023-12-20T09:14:57;55.80;;;23.80;;
41829;SDS011;38614;43.472;23.936;2023-12-20T09:17:44;45.28;;;21.33;;
41829;SDS011;38614;43.472;23.936;2023-12-20T09:20:33;38.15;;;17.50;;
41829;SDS011;38614;43.472;23.936;2023-12-20T09:23:21;43.85;;;21.42;;
41829;SDS011;38614;43.472;23.936;2023-12-20T09:26:10;55.60;;;27.23;;
41829;SDS011;38614;43.472;23.936;2023-12-20T09:29:00;48.40;;;26.63;;
41829;SDS011;38614;43.472;23.936;2023-12-20T09:31:54;50.40;;;24.70;;
41829;SDS011;38614;43.472;23.936;2023-12-20T09:34:42;32.40;;;18.55;;
41829;SDS011;38614;43.472;23.936;2023-12-20T09:37:30;42.33;;;19.23;;
41829;SDS011;38614;43.472;23.936;2023-12-20T09:40:19;43.78;;;21.40;;
41829;SDS011;38614;43.472;23.936;2023-12-20T09:43:10;61.55;;;20.40;;
41829;SDS011;38614;43.472;23.936;2023-12-20T09:48:49;29.45;;;10.82;;
41829;SDS011;38614;43.472;23.936;2023-12-20T09:51:37;12.73;;;6.88;;
41829;SDS011;38614;43.472;23.936;2023-12-20T09:54:25;9.13;;;4.80;;
41829;SDS011;38614;43.472;23.936;2023-12-20T09:57:13;13.52;;;4.82;;
41829;SDS011;38614;43.472;23.936;2023-12-20T10:00:01;26.05;;;6.20;;
41829;SDS011;38614;43.472;23.936;2023-12-20T10:02:59;10.15;;;4.85;;
41829;SDS011;38614;43.472;23.936;2023-12-20T10:05:47;9.00;;;5.38;;
41829;SDS011;38614;43.472;23.936;2023-12-20T10:08:37;10.35;;;4.80;;
41829;SDS011;38614;43.472;23.936;2023-12-20T10:11:24;9.23;;;5.57;;
41829;SDS011;38614;43.472;23.936;2023-12-20T10:14:15;10.05;;;5.40;;
41829;SDS011;38614;43.472;23.936;2023-12-20T10:17:03;10.68;;;5.80;;
41829;SDS011;38614;43.472;23.936;2023-12-20T10:19:51;8.07;;;5.00;;
41829;SDS011;38614;43.472;23.936;2023-12-20T10:22:39;15.82;;;3.95;;
41829;SDS011;38614;43.472;23.936;2023-12-20T10:25:28;10.65;;;4.85;;
41829;SDS011;38614;43.472;23.936;2023-12-20T10:31:10;16.83;;;3.58;;
41829;SDS011;38614;43.472;23.936;2023-12-20T10:34:12;8.65;;;3.55;;
41829;SDS011;38614;43.472;23.936;2023-12-20T10:37:01;8.85;;;4.68;;
41829;SDS011;38614;43.472;23.936;2023-12-20T10:39:53;12.55;;;4.93;;
41829;SDS011;38614;43.472;23.936;2023-12-20T10:42:44;12.10;;;4.53;;
41829;SDS011;38614;43.472;23.936;2023-12-20T10:45:32;12.95;;;5.45;;
41829;SDS011;38614;43.472;23.936;2023-12-20T10:48:21;9.90;;;4.95;;
41829;SDS011;38614;43.472;23.936;2023-12-20T10:51:15;13.07;;;3.90;;
41829;SDS011;38614;43.472;23.936;2023-12-20T10:54:05;9.68;;;3.15;;
41829;SDS011;38614;43.472;23.936;2023-12-20T10:56:52;9.45;;;4.75;;
41829;SDS011;38614;43.472;23.936;2023-12-20T10:59:40;14.35;;;3.50;;
41829;SDS011;38614;43.472;23.936;2023-12-20T11:02:28;10.77;;;4.35;;
41829;SDS011;38614;43.472;23.936;2023-12-20T11:05:20;10.15;;;3.15;;
41829;SDS011;38614;43.472;23.936;2023-12-20T11:08:15;11.88;;;5.30;;
41829;SDS011;38614;43.472;23.936;2023-12-20T11:14:08;8.73;;;4.00;;
41829;SDS011;38614;43.472;23.936;2023-12-20T11:17:09;7.85;;;4.35;;
41829;SDS011;38614;43.472;23.936;2023-12-20T11:22:54;3.83;;;2.75;;
41829;SDS011;38614;43.472;23.936;2023-12-20T11:25:49;4.35;;;2.90;;
41829;SDS011;38614;43.472;23.936;2023-12-20T11:28:39;7.55;;;3.25;;
41829;SDS011;38614;43.472;23.936;2023-12-20T11:31:27;7.40;;;3.33;;
41829;SDS011;38614;43.472;23.936;2023-12-20T11:34:15;11.48;;;6.10;;
41829;SDS011;38614;43.472;23.936;2023-12-20T11:37:04;12.38;;;3.35;;
41829;SDS011;38614;43.472;23.936;2023-12-20T11:39:56;6.55;;;2.72;;
41829;SDS011;38614;43.472;23.936;2023-12-20T11:42:50;6.95;;;2.90;;
41829;SDS011;38614;43.472;23.936;2023-12-20T11:45:39;9.30;;;4.05;;
41829;SDS011;38614;43.472;23.936;2023-12-20T11:48:39;13.88;;;4.30;;
41829;SDS011;38614;43.472;23.936;2023-12-20T11:51:28;9.82;;;3.40;;
41829;SDS011;38614;43.472;23.936;2023-12-20T11:54:15;10.13;;;4.70;;
41829;SDS011;38614;43.472;23.936;2023-12-20T11:57:03;6.28;;;2.67;;
41829;SDS011;38614;43.472;23.936;2023-12-20T11:59:51;8.27;;;3.38;;
41829;SDS011;38614;43.472;23.936;2023-12-20T12:02:39;10.27;;;2.95;;
41829;SDS011;38614;43.472;23.936;2023-12-20T12:05:26;5.38;;;2.22;;
41829;SDS011;38614;43.472;23.936;2023-12-20T12:08:17;9.23;;;3.03;;
41829;SDS011;38614;43.472;23.936;2023-12-20T12:11:04;4.50;;;2.45;;
41829;SDS011;38614;43.472;23.936;2023-12-20T12:13:55;11.85;;;3.05;;
41829;SDS011;38614;43.472;23.936;2023-12-20T12:16:43;5.30;;;2.13;;
41829;SDS011;38614;43.472;23.936;2023-12-20T12:19:31;3.65;;;2.60;;
41829;SDS011;38614;43.472;23.936;2023-12-20T12:22:23;20.45;;;3.40;;
41829;SDS011;38614;43.472;23.936;2023-12-20T12:25:14;11.15;;;2.25;;
41829;SDS011;38614;43.472;23.936;2023-12-20T12:28:02;8.32;;;4.05;;
41829;SDS011;38614;43.472;23.936;2023-12-20T12:30:57;13.35;;;2.85;;
41829;SDS011;38614;43.472;23.936;2023-12-20T12:33:45;6.97;;;2.70;;
41829;SDS011;38614;43.472;23.936;2023-12-20T12:36:36;3.58;;;2.30;;
41829;SDS011;38614;43.472;23.936;2023-12-20T12:39:24;7.30;;;2.58;;
41829;SDS011;38614;43.472;23.936;2023-12-20T12:42:12;18.67;;;3.53;;
41829;SDS011;38614;43.472;23.936;2023-12-20T12:45:00;6.15;;;2.53;;
41829;SDS011;38614;43.472;23.936;2023-12-20T12:47:48;3.55;;;1.95;;
41829;SDS011;38614;43.472;23.936;2023-12-20T12:50:36;7.15;;;2.88;;
41829;SDS011;38614;43.472;23.936;2023-12-20T12:53:25;4.95;;;2.67;;
41829;SDS011;38614;43.472;23.936;2023-12-20T12:56:13;6.90;;;2.95;;
41829;SDS011;38614;43.472;23.936;2023-12-20T12:59:02;20.55;;;4.78;;
41829;SDS011;38614;43.472;23.936;2023-12-20T13:01:50;12.35;;;4.95;;
41829;SDS011;38614;43.472;23.936;2023-12-20T13:04:38;8.05;;;3.05;;
41829;SDS011;38614;43.472;23.936;2023-12-20T13:07:25;19.10;;;4.00;;
41829;SDS011;38614;43.472;23.936;2023-12-20T13:10:13;8.93;;;4.50;;
41829;SDS011;38614;43.472;23.936;2023-12-20T13:13:04;9.20;;;4.72;;
41829;SDS011;38614;43.472;23.936;2023-12-20T13:15:52;20.85;;;4.90;;
41829;SDS011;38614;43.472;23.936;2023-12-20T13:18:42;12.85;;;5.40;;
41829;SDS011;38614;43.472;23.936;2023-12-20T13:21:30;10.75;;;6.22;;
41829;SDS011;38614;43.472;23.936;2023-12-20T13:24:18;8.25;;;4.72;;
41829;SDS011;38614;43.472;23.936;2023-12-20T13:27:06;14.57;;;5.50;;
41829;SDS011;38614;43.472;23.936;2023-12-20T13:29:54;13.65;;;5.00;;
41829;SDS011;38614;43.472;23.936;2023-12-20T13:32:45;12.52;;;6.03;;
41829;SDS011;38614;43.472;23.936;2023-12-20T13:35:33;14.38;;;6.50;;
41829;SDS011;38614;43.472;23.936;2023-12-20T13:38:22;11.10;;;4.72;;
41829;SDS011;38614;43.472;23.936;2023-12-20T13:41:09;8.05;;;4.63;;
41829;SDS011;38614;43.472;23.936;2023-12-20T13:43:57;12.23;;;4.97;;
41829;SDS011;38614;43.472;23.936;2023-12-20T13:46:47;10.68;;;5.20;;
41829;SDS011;38614;43.472;23.936;2023-12-20T13:49:37;8.38;;;4.95;;
41829;SDS011;38614;43.472;23.936;2023-12-20T13:52:24;15.50;;;4.70;;
41829;SDS011;38614;43.472;23.936;2023-12-20T13:55:12;12.75;;;5.75;;
41829;SDS011;38614;43.472;23.936;2023-12-20T13:58:00;11.07;;;5.10;;
41829;SDS011;38614;43.472;23.936;2023-12-20T14:00:48;19.08;;;5.95;;
41829;SDS011;38614;43.472;23.936;2023-12-20T14:03:36;15.95;;;6.07;;
41829;SDS011;38614;43.472;23.936;2023-12-20T14:06:24;12.48;;;4.97;;
41829;SDS011;38614;43.472;23.936;2023-12-20T14:09:15;10.75;;;5.03;;
41829;SDS011;38614;43.472;23.936;2023-12-20T14:12:03;14.73;;;4.82;;
41829;SDS011;38614;43.472;23.936;2023-12-20T14:14:53;12.77;;;3.72;;
41829;SDS011;38614;43.472;23.936;2023-12-20T14:17:43;11.55;;;4.72;;
41829;SDS011;38614;43.472;23.936;2023-12-20T14:20:32;10.63;;;4.18;;
41829;SDS011;38614;43.472;23.936;2023-12-20T14:23:24;15.18;;;4.28;;
41829;SDS011;38614;43.472;23.936;2023-12-20T14:26:18;19.75;;;4.70;;
41829;SDS011;38614;43.472;23.936;2023-12-20T14:29:05;9.43;;;4.35;;
41829;SDS011;38614;43.472;23.936;2023-12-20T14:31:55;17.25;;;6.75;;
41829;SDS011;38614;43.472;23.936;2023-12-20T14:34:43;14.25;;;6.07;;
41829;SDS011;38614;43.472;23.936;2023-12-20T14:37:31;11.48;;;6.60;;
41829;SDS011;38614;43.472;23.936;2023-12-20T14:40:21;37.58;;;15.02;;
41829;SDS011;38614;43.472;23.936;2023-12-20T14:43:09;28.35;;;12.23;;
41829;SDS011;38614;43.472;23.936;2023-12-20T14:45:57;50.05;;;16.70;;
41829;SDS011;38614;43.472;23.936;2023-12-20T14:48:47;36.38;;;15.10;;
41829;SDS011;38614;43.472;23.936;2023-12-20T14:51:36;32.53;;;14.52;;
41829;SDS011;38614;43.472;23.936;2023-12-20T14:54:30;33.45;;;13.45;;
41829;SDS011;38614;43.472;23.936;2023-12-20T14:57:17;37.40;;;17.15;;
41829;SDS011;38614;43.472;23.936;2023-12-20T15:00:08;44.88;;;17.52;;
41829;SDS011;38614;43.472;23.936;2023-12-20T15:02:56;29.23;;;13.38;;
41829;SDS011;38614;43.472;23.936;2023-12-20T15:05:44;33.80;;;13.30;;
41829;SDS011;38614;43.472;23.936;2023-12-20T15:08:33;41.35;;;12.90;;
41829;SDS011;38614;43.472;23.936;2023-12-20T15:11:22;27.65;;;13.63;;
41829;SDS011;38614;43.472;23.936;2023-12-20T15:14:09;47.88;;;15.25;;
41829;SDS011;38614;43.472;23.936;2023-12-20T15:16:57;32.03;;;13.45;;
41829;SDS011;38614;43.472;23.936;2023-12-20T15:19:46;28.75;;;14.48;;
41829;SDS011;38614;43.472;23.936;2023-12-20T15:22:36;37.70;;;13.60;;
41829;SDS011;38614;43.472;23.936;2023-12-20T15:25:27;46.20;;;13.70;;
41829;SDS011;38614;43.472;23.936;2023-12-20T15:28:17;45.05;;;16.45;;
41829;SDS011;38614;43.472;23.936;2023-12-20T15:31:05;50.58;;;20.88;;
41829;SDS011;38614;43.472;23.936;2023-12-20T15:33:56;62.47;;;21.50;;
41829;SDS011;38614;43.472;23.936;2023-12-20T15:36:45;44.08;;;20.98;;
41829;SDS011;38614;43.472;23.936;2023-12-20T15:39:33;56.63;;;25.13;;
41829;SDS011;38614;43.472;23.936;2023-12-20T15:42:20;65.00;;;28.45;;
41829;SDS011;38614;43.472;23.936;2023-12-20T15:45:08;77.80;;;27.50;;
41829;SDS011;38614;43.472;23.936;2023-12-20T15:47:56;71.40;;;28.15;;
41829;SDS011;38614;43.472;23.936;2023-12-20T15:50:44;71.10;;;30.85;;
41829;SDS011;38614;43.472;23.936;2023-12-20T15:53:32;81.75;;;37.33;;
41829;SDS011;38614;43.472;23.936;2023-12-20T15:56:19;85.18;;;34.60;;
41829;SDS011;38614;43.472;23.936;2023-12-20T15:59:08;87.38;;;41.47;;
41829;SDS011;38614;43.472;23.936;2023-12-20T16:01:57;67.28;;;37.78;;
41829;SDS011;38614;43.472;23.936;2023-12-20T16:04:47;95.60;;;49.45;;
41829;SDS011;38614;43.472;23.936;2023-12-20T16:07:40;127.63;;;56.85;;
41829;SDS011;38614;43.472;23.936;2023-12-20T16:10:29;145.18;;;67.03;;
41829;SDS011;38614;43.472;23.936;2023-12-20T16:13:16;161.10;;;71.00;;
41829;SDS011;38614;43.472;23.936;2023-12-20T16:16:05;162.75;;;78.40;;
41829;SDS011;38614;43.472;23.936;2023-12-20T16:18:52;157.23;;;75.03;;
41829;SDS011;38614;43.472;23.936;2023-12-20T16:21:40;151.30;;;63.28;;
41829;SDS011;38614;43.472;23.936;2023-12-20T16:24:31;146.88;;;66.78;;
41829;SDS011;38614;43.472;23.936;2023-12-20T16:27:20;148.18;;;67.60;;
41829;SDS011;38614;43.472;23.936;2023-12-20T16:30:09;147.45;;;71.05;;
41829;SDS011;38614;43.472;23.936;2023-12-20T16:33:00;177.40;;;76.68;;
41829;SDS011;38614;43.472;23.936;2023-12-20T16:35:47;165.65;;;78.32;;